INDIA METEOROLOGICAL DEPARTMENT, R.M.C. NEW DELHI
Dated:03-10-2022
METARS


Agartala   
VEAT 030400Z 17005KT 4000 BR FEW010 SCT018 FEW030CB BKN100 28/26 Q1007 NOSIG=
Ahmedabad  
VAAH 030400Z 33006KT 4000 HZ NSC 30/25 Q1010 NOSIG=
Allahabad  
VEAB 030400Z 30003KT 4000 BR FEW250 30/26 Q1007 NOSIG=
Aurangabad 
VAAU 030400Z 34007KT 6000 FEW020 26/21 Q1012 NOSIG=
Bangalore  
VOBL 030400Z 27009KT 6000 SCT008 SCT012 BKN080 22/21 Q1014 BECMG 6000=
Baroda     
VABO 030402Z 03006KT 5000 HZ FEW020 30/24 Q1011 NOSIG=
Bhaunagar  
VABV 030300Z 27005KT 5000 HZ FEW080 27/23 Q1010=
Bhubaneswar
VEBS 030400Z 04005KT 4500 HZ SCT016 BKN100 29/27 Q1006 NOSIG=
Bhuntar    
VIBR 030400Z 00000KT 6000 FEW030 22/14 Q1015=
Chennai    
VOMM 030400Z 31012KT 5000 HZ SCT020 BKN100 31/23 Q1006 NOSIG=
Coimbatore 
VOCB 030400Z 20005KT 5000 HZ SCT012 28/22 Q1011 NOSIG=
Colombo    
VCBI 030410Z 27009G21KT 230V330 9999 BKN017 28/24 Q1010 NOSIG=
Delhi      
VIDP 030400Z 29009KT 2800 HZ NSC 29/20 Q1009 BECMG 3000 HZ=
Dehradun   
VIDN 030400Z 20003KT 5000 HZ FEW030 27/19 Q1011=
Gauhati    
VEGT 030400Z 05003KT 2500 -RA FEW010 SCT018 BKN090 27/26 Q1008 NOSIG=
Gaya       
VEGY 030400Z 00000KT 2000 BR BKN100 29/26 Q1006 =
Gaggal     
VIGG 030400Z 00000KT 6000 SCT035 23/21 Q1013 =
Goa        
VOGO 030400Z 34007KT 6000 FEW018 SCT090 28/24 Q1010 NOSIG=
Fursatganj 
VERB 030400Z 31003KT 2500 HZ NSC 32/25 Q1006 =
Hyderabad  
VOHS 030400Z 33010KT 5000 BR FEW015 27/22 Q1012 NOSIG=
Imphal     
VEIM 030400Z 07005KT 4000 -RA FEW008 SCT018 OVC090 24/23 Q1013 BECMG 3000 -RA=
Indore     
VAID 030400Z 32005KT 6000 NSC 28/23 Q1014 NOSIG=
Jabalpur   
VAJB 030400Z VRB02KT 3500 HZ NSC 28/22 Q1010 NOSIG=
Jaipur     
VIJP 030400Z 33012KT 5000 HZ FEW100 29/19 Q1012 NOSIG=
Kochi      
VOCI 030400Z 12002KT 4000 BR SCT012 BKN080 27/25 Q1011 BECMG 5000 BR=
Kolkata    
VECC 030400Z 08007KT 4000 HZ SCT018 SCT025 BKN100 30/25 Q1005 NOSIG=
Kozhikode  
VOCL 030400Z 27005KT 6000 SCT012 BKN080 26/23 Q1010 NOSIG=
Lucknow    
VILK 030400Z VRB02KT 2500 BR FEW020 SCT100 30/26 Q1006 BECMG 3000 BR HZ=
Madurai    
VOMD 030400Z 32004KT 8000 FEW020 SCT100 32/21 Q1008 NOSIG=
Mohanbari  
VEMN 030400Z 10008KT 5000 HZ SCT020 BKN100 29/25 Q1008 NOSIG=
Mumbai     
VABB 030400Z 01004KT 3000 HZ FEW020 SCT025 29/24 Q1011 NOSIG=
Nagpur     
VANP 030400Z 35004KT 6000 NSC 30/23 Q1010 NOSIG=
Pantnagar
VIPT 030400Z 09004KT 2000 HZ NSC 30/23 Q1008 =
Patna      
VEPT 030400Z 06005KT 3000 HZ FEW018 SCT100 32/26 Q1005 NOSIG=
Raipur     
VERP 030430Z 02006KT 3000 BR NSC 29/23 Q1008 NOSIG=
Safdarjung 
VIDD 030400Z 25007KT 3000 HZ NSC 28/21 Q1008 NOSIG=
Shimla     
VISM 030400Z 00000KT 5000 NSC 22/17 Q1017 =
Surat     
VASU 030400Z 33004KT 6000 FEW025 SCT025 29/24 Q1011 NOSIG=
Ranchi     
VERC 030400Z 36005KT 3000 HZ SCT018 BKN100 26/24 Q1010 NOSIG=
Trichy     
VOTR 030400Z 28010G20KT 4500 HZ SCT016 BKN100 29/23 Q1008 BECMG 5000 HZ=
Trivandrum 
VOTV 030400Z 31009KT 4000 HZ SCT012 FEW025CB BKN080 26/23 Q1010 NOSIG=
Udaipur    
VAUD 030400Z 30004KT 6000 NSC 28/21 Q1013 NOSIG=
Varanasi   
VEBN 030400Z 31003KT 2500 HZ NSC 33/27 Q1006 BECMG 3000 HZ=
Vizag      
VOVZ 030400Z 27006KT 3500 HZ FEW018 BKN080 30/26 Q1004 NOSIG=
Male       
VRMM 030400Z 28015KT 9999 FEW018 SCT120 BKN280 30/24 Q1011 NOSIG=
Gan        
VRMG 030400Z 28015KT 9999 FEW018 BKN260 29/24 Q1012 NOSIG=
Kathmandu  
VNKT 030400Z VRB02KT 8000 FEW015 26/20 Q1016 NOSIG=
Dhaka      
VGHS 030400Z 12004KT 3200 DZ BKN010 FEW025CB OVC100 27/25 Q1007 TEMPO TSRA=
Colombo    
VCBI 030410Z 27009G21KT 230V330 9999 BKN017 28/24 Q1010 NOSIG=
Karachi    
OPKC 030430Z 29006KT 5000 FU BKN020 29/22 Q1010 NOSIG=
Lahore     
OPLA 030355Z 00000KT 3500 FU NSC 30/21 Q1008 BECMG 4000 RMK QFE983 A29.78=
Gorakhpur  
VEGK 030400Z VRB02KT 4000 HZ SCT020 33/26 Q1006 BECMG 5000=
Agra       
VIAG 030400Z 27005KT 6000 SKC 31/21 Q1008 NOSIG=
Bagdogra   
VEBD 030400Z 08006KT 6000 FEW030 SCT100 BKN200 33/27 Q1008 NOSIG=
Gwalior    
VIGR 030400Z 27004KT 6000 FEW250 30/22 Q1009 NOSIG=
Pune       
VAPO 030400Z 27008KT 6000 FEW020 26/21 Q1015 NOSIG=
Jamnagar   
VAJM 030400Z 32003KT 6000 SCT020 31/24 Q1011 NOSIG=
Pathankot   
VIPK 030400Z VRB02KT 5000 HZ FEW090 29/22 Q1010 NOSIG=